sensor_id;sensor_type;location;lat;lon;timestamp;P1;durP1;ratioP1;P2;durP2;ratioP2
5807;SDS011;2930;42.678;23.312;2022-09-29T00:02:00;1.05;;;1.05;;
5807;SDS011;2930;42.678;23.312;2022-09-29T00:04:26;0.93;;;0.93;;
5807;SDS011;2930;42.678;23.312;2022-09-29T00:06:52;2.22;;;1.20;;
5807;SDS011;2930;42.678;23.312;2022-09-29T00:09:17;3.00;;;1.08;;
5807;SDS011;2930;42.678;23.312;2022-09-29T00:11:43;0.80;;;0.80;;
5807;SDS011;2930;42.678;23.312;2022-09-29T00:14:09;1.02;;;0.82;;
5807;SDS011;2930;42.678;23.312;2022-09-29T00:16:35;2.88;;;0.90;;
5807;SDS011;2930;42.678;23.312;2022-09-29T00:19:00;2.72;;;1.20;;
5807;SDS011;2930;42.678;23.312;2022-09-29T00:21:26;0.70;;;0.70;;
5807;SDS011;2930;42.678;23.312;2022-09-29T00:23:52;0.85;;;0.82;;
5807;SDS011;2930;42.678;23.312;2022-09-29T00:26:19;3.72;;;1.27;;
5807;SDS011;2930;42.678;23.312;2022-09-29T00:28:47;2.30;;;1.20;;
5807;SDS011;2930;42.678;23.312;2022-09-29T00:31:22;3.13;;;1.15;;
5807;SDS011;2930;42.678;23.312;2022-09-29T00:33:50;1.23;;;0.77;;
5807;SDS011;2930;42.678;23.312;2022-09-29T00:36:17;1.20;;;0.95;;
5807;SDS011;2930;42.678;23.312;2022-09-29T00:38:44;0.90;;;0.82;;
5807;SDS011;2930;42.678;23.312;2022-09-29T00:41:15;3.15;;;1.13;;
5807;SDS011;2930;42.678;23.312;2022-09-29T00:43:53;1.63;;;1.10;;
5807;SDS011;2930;42.678;23.312;2022-09-29T00:46:31;1.13;;;1.10;;
5807;SDS011;2930;42.678;23.312;2022-09-29T00:49:08;1.20;;;1.20;;
5807;SDS011;2930;42.678;23.312;2022-09-29T00:51:36;0.90;;;0.90;;
5807;SDS011;2930;42.678;23.312;2022-09-29T00:54:05;1.42;;;1.27;;
5807;SDS011;2930;42.678;23.312;2022-09-29T00:56:32;1.92;;;0.90;;
5807;SDS011;2930;42.678;23.312;2022-09-29T00:59:00;1.08;;;1.08;;
5807;SDS011;2930;42.678;23.312;2022-09-29T01:01:29;1.48;;;1.08;;
5807;SDS011;2930;42.678;23.312;2022-09-29T01:03:57;1.95;;;1.33;;
5807;SDS011;2930;42.678;23.312;2022-09-29T01:06:35;2.42;;;1.10;;
5807;SDS011;2930;42.678;23.312;2022-09-29T01:09:18;0.82;;;0.82;;
5807;SDS011;2930;42.678;23.312;2022-09-29T01:11:47;1.70;;;1.00;;
5807;SDS011;2930;42.678;23.312;2022-09-29T01:14:16;2.30;;;1.38;;
5807;SDS011;2930;42.678;23.312;2022-09-29T01:16:43;1.30;;;1.20;;
5807;SDS011;2930;42.678;23.312;2022-09-29T01:19:16;0.85;;;0.85;;
5807;SDS011;2930;42.678;23.312;2022-09-29T01:30:11;1.10;;;1.10;;
5807;SDS011;2930;42.678;23.312;2022-09-29T01:38:04;0.95;;;0.95;;
5807;SDS011;2930;42.678;23.312;2022-09-29T01:40:58;1.10;;;0.90;;
5807;SDS011;2930;42.678;23.312;2022-09-29T01:43:49;1.25;;;1.25;;
5807;SDS011;2930;42.678;23.312;2022-09-29T01:46:24;1.13;;;1.10;;
5807;SDS011;2930;42.678;23.312;2022-09-29T01:48:54;0.77;;;0.77;;
5807;SDS011;2930;42.678;23.312;2022-09-29T01:51:34;2.78;;;1.33;;
5807;SDS011;2930;42.678;23.312;2022-09-29T01:54:02;2.13;;;1.88;;
5807;SDS011;2930;42.678;23.312;2022-09-29T01:56:37;2.88;;;1.17;;
5807;SDS011;2930;42.678;23.312;2022-09-29T01:59:21;1.13;;;1.13;;
5807;SDS011;2930;42.678;23.312;2022-09-29T02:01:56;1.95;;;1.10;;
5807;SDS011;2930;42.678;23.312;2022-09-29T02:04:37;1.23;;;1.23;;
5807;SDS011;2930;42.678;23.312;2022-09-29T02:07:19;2.22;;;1.20;;
5807;SDS011;2930;42.678;23.312;2022-09-29T02:09:52;1.15;;;1.08;;
5807;SDS011;2930;42.678;23.312;2022-09-29T02:12:24;3.47;;;1.00;;
5807;SDS011;2930;42.678;23.312;2022-09-29T02:14:51;4.25;;;1.17;;
5807;SDS011;2930;42.678;23.312;2022-09-29T02:17:20;0.75;;;0.73;;
5807;SDS011;2930;42.678;23.312;2022-09-29T02:19:57;1.23;;;1.23;;
5807;SDS011;2930;42.678;23.312;2022-09-29T02:22:23;2.55;;;1.08;;
5807;SDS011;2930;42.678;23.312;2022-09-29T02:24:50;1.40;;;1.30;;
5807;SDS011;2930;42.678;23.312;2022-09-29T02:27:19;1.00;;;1.00;;
5807;SDS011;2930;42.678;23.312;2022-09-29T02:29:46;2.05;;;1.13;;
5807;SDS011;2930;42.678;23.312;2022-09-29T02:32:13;0.88;;;0.88;;
5807;SDS011;2930;42.678;23.312;2022-09-29T02:34:39;1.13;;;1.13;;
5807;SDS011;2930;42.678;23.312;2022-09-29T02:43:19;1.02;;;0.93;;
5807;SDS011;2930;42.678;23.312;2022-09-29T02:51:09;4.32;;;1.00;;
5807;SDS011;2930;42.678;23.312;2022-09-29T03:01:58;3.30;;;1.17;;
5807;SDS011;2930;42.678;23.312;2022-09-29T03:04:24;0.80;;;0.80;;
5807;SDS011;2930;42.678;23.312;2022-09-29T03:06:51;4.15;;;1.00;;
5807;SDS011;2930;42.678;23.312;2022-09-29T03:09:17;1.75;;;1.30;;
5807;SDS011;2930;42.678;23.312;2022-09-29T03:11:43;2.60;;;1.05;;
5807;SDS011;2930;42.678;23.312;2022-09-29T03:14:09;1.08;;;0.98;;
5807;SDS011;2930;42.678;23.312;2022-09-29T03:16:34;2.60;;;1.00;;
5807;SDS011;2930;42.678;23.312;2022-09-29T03:19:01;0.98;;;0.98;;
5807;SDS011;2930;42.678;23.312;2022-09-29T03:21:31;3.38;;;1.13;;
5807;SDS011;2930;42.678;23.312;2022-09-29T03:23:57;1.20;;;1.10;;
5807;SDS011;2930;42.678;23.312;2022-09-29T03:26:23;1.55;;;1.10;;
5807;SDS011;2930;42.678;23.312;2022-09-29T03:28:50;1.67;;;1.33;;
5807;SDS011;2930;42.678;23.312;2022-09-29T03:31:16;1.58;;;1.33;;
5807;SDS011;2930;42.678;23.312;2022-09-29T03:33:42;1.73;;;1.05;;
5807;SDS011;2930;42.678;23.312;2022-09-29T03:36:08;1.35;;;1.20;;
5807;SDS011;2930;42.678;23.312;2022-09-29T03:38:35;1.00;;;1.00;;
5807;SDS011;2930;42.678;23.312;2022-09-29T03:41:01;0.90;;;0.90;;
5807;SDS011;2930;42.678;23.312;2022-09-29T03:43:28;0.82;;;0.82;;
5807;SDS011;2930;42.678;23.312;2022-09-29T03:45:54;1.10;;;1.00;;
5807;SDS011;2930;42.678;23.312;2022-09-29T03:48:20;4.78;;;1.23;;
5807;SDS011;2930;42.678;23.312;2022-09-29T03:50:47;1.23;;;1.15;;
5807;SDS011;2930;42.678;23.312;2022-09-29T03:53:14;3.33;;;1.40;;
5807;SDS011;2930;42.678;23.312;2022-09-29T03:55:44;4.80;;;1.27;;
5807;SDS011;2930;42.678;23.312;2022-09-29T03:58:11;3.25;;;1.00;;
5807;SDS011;2930;42.678;23.312;2022-09-29T04:00:36;3.40;;;1.58;;
5807;SDS011;2930;42.678;23.312;2022-09-29T04:03:02;2.15;;;1.20;;
5807;SDS011;2930;42.678;23.312;2022-09-29T04:05:29;0.90;;;0.90;;
5807;SDS011;2930;42.678;23.312;2022-09-29T04:07:55;1.33;;;1.15;;
5807;SDS011;2930;42.678;23.312;2022-09-29T04:10:21;2.97;;;1.00;;
5807;SDS011;2930;42.678;23.312;2022-09-29T04:12:47;5.07;;;1.15;;
5807;SDS011;2930;42.678;23.312;2022-09-29T04:15:12;1.20;;;1.00;;
5807;SDS011;2930;42.678;23.312;2022-09-29T04:17:38;1.00;;;0.88;;
5807;SDS011;2930;42.678;23.312;2022-09-29T04:20:04;2.80;;;1.35;;
5807;SDS011;2930;42.678;23.312;2022-09-29T04:22:29;3.65;;;1.17;;
5807;SDS011;2930;42.678;23.312;2022-09-29T04:24:55;4.78;;;1.40;;
5807;SDS011;2930;42.678;23.312;2022-09-29T04:27:21;1.73;;;1.63;;
5807;SDS011;2930;42.678;23.312;2022-09-29T04:29:47;1.35;;;1.35;;
5807;SDS011;2930;42.678;23.312;2022-09-29T04:32:12;2.55;;;1.17;;
5807;SDS011;2930;42.678;23.312;2022-09-29T04:34:38;1.23;;;1.23;;
5807;SDS011;2930;42.678;23.312;2022-09-29T04:37:06;3.08;;;1.40;;
5807;SDS011;2930;42.678;23.312;2022-09-29T04:39:35;1.42;;;1.42;;
5807;SDS011;2930;42.678;23.312;2022-09-29T04:42:01;1.58;;;1.48;;
5807;SDS011;2930;42.678;23.312;2022-09-29T04:44:26;1.10;;;1.02;;
5807;SDS011;2930;42.678;23.312;2022-09-29T04:46:52;2.30;;;1.35;;
5807;SDS011;2930;42.678;23.312;2022-09-29T04:49:18;3.58;;;1.65;;
5807;SDS011;2930;42.678;23.312;2022-09-29T04:51:44;1.95;;;1.58;;
5807;SDS011;2930;42.678;23.312;2022-09-29T04:54:10;1.63;;;1.20;;
5807;SDS011;2930;42.678;23.312;2022-09-29T04:56:36;1.15;;;1.05;;
5807;SDS011;2930;42.678;23.312;2022-09-29T04:59:02;2.38;;;1.00;;
5807;SDS011;2930;42.678;23.312;2022-09-29T05:01:27;1.65;;;1.50;;
5807;SDS011;2930;42.678;23.312;2022-09-29T05:03:54;1.33;;;1.30;;
5807;SDS011;2930;42.678;23.312;2022-09-29T05:06:20;4.82;;;1.45;;
5807;SDS011;2930;42.678;23.312;2022-09-29T05:08:45;1.60;;;1.48;;
5807;SDS011;2930;42.678;23.312;2022-09-29T05:11:11;2.55;;;1.58;;
5807;SDS011;2930;42.678;23.312;2022-09-29T05:13:37;1.55;;;1.45;;
5807;SDS011;2930;42.678;23.312;2022-09-29T05:16:03;4.05;;;1.75;;
5807;SDS011;2930;42.678;23.312;2022-09-29T05:18:30;1.60;;;1.60;;
5807;SDS011;2930;42.678;23.312;2022-09-29T05:21:00;1.20;;;1.20;;
5807;SDS011;2930;42.678;23.312;2022-09-29T05:23:27;1.55;;;1.55;;
5807;SDS011;2930;42.678;23.312;2022-09-29T05:25:53;1.73;;;1.63;;
5807;SDS011;2930;42.678;23.312;2022-09-29T05:28:18;3.00;;;1.55;;
5807;SDS011;2930;42.678;23.312;2022-09-29T05:30:44;1.92;;;1.60;;
5807;SDS011;2930;42.678;23.312;2022-09-29T05:33:10;2.95;;;1.48;;
5807;SDS011;2930;42.678;23.312;2022-09-29T05:35:35;2.90;;;1.42;;
5807;SDS011;2930;42.678;23.312;2022-09-29T05:38:01;1.27;;;1.27;;
5807;SDS011;2930;42.678;23.312;2022-09-29T05:40:27;5.20;;;1.42;;
5807;SDS011;2930;42.678;23.312;2022-09-29T05:42:53;7.15;;;1.63;;
5807;SDS011;2930;42.678;23.312;2022-09-29T05:45:19;3.95;;;1.73;;
5807;SDS011;2930;42.678;23.312;2022-09-29T05:47:45;1.95;;;1.77;;
5807;SDS011;2930;42.678;23.312;2022-09-29T05:50:11;1.15;;;1.15;;
5807;SDS011;2930;42.678;23.312;2022-09-29T05:52:37;1.85;;;1.73;;
5807;SDS011;2930;42.678;23.312;2022-09-29T05:55:04;1.20;;;1.20;;
5807;SDS011;2930;42.678;23.312;2022-09-29T05:57:33;2.90;;;1.27;;
5807;SDS011;2930;42.678;23.312;2022-09-29T05:59:58;2.58;;;1.20;;
5807;SDS011;2930;42.678;23.312;2022-09-29T06:02:24;1.20;;;1.20;;
5807;SDS011;2930;42.678;23.312;2022-09-29T06:04:50;1.70;;;1.60;;
5807;SDS011;2930;42.678;23.312;2022-09-29T06:07:15;1.40;;;1.15;;
5807;SDS011;2930;42.678;23.312;2022-09-29T06:09:41;2.03;;;1.50;;
5807;SDS011;2930;42.678;23.312;2022-09-29T06:12:07;4.10;;;1.10;;
5807;SDS011;2930;42.678;23.312;2022-09-29T06:14:32;6.18;;;1.65;;
5807;SDS011;2930;42.678;23.312;2022-09-29T06:16:58;1.40;;;1.40;;
5807;SDS011;2930;42.678;23.312;2022-09-29T06:19:24;1.38;;;1.25;;
5807;SDS011;2930;42.678;23.312;2022-09-29T06:21:50;1.27;;;1.17;;
5807;SDS011;2930;42.678;23.312;2022-09-29T06:24:15;1.40;;;1.30;;
5807;SDS011;2930;42.678;23.312;2022-09-29T06:26:41;1.13;;;1.00;;
5807;SDS011;2930;42.678;23.312;2022-09-29T06:29:07;1.35;;;1.17;;
5807;SDS011;2930;42.678;23.312;2022-09-29T06:31:33;4.57;;;1.77;;
5807;SDS011;2930;42.678;23.312;2022-09-29T06:33:59;1.20;;;1.20;;
5807;SDS011;2930;42.678;23.312;2022-09-29T06:36:34;2.15;;;1.42;;
5807;SDS011;2930;42.678;23.312;2022-09-29T06:39:26;3.25;;;1.48;;
5807;SDS011;2930;42.678;23.312;2022-09-29T06:41:53;1.50;;;1.40;;
5807;SDS011;2930;42.678;23.312;2022-09-29T06:44:22;2.15;;;1.20;;
5807;SDS011;2930;42.678;23.312;2022-09-29T06:46:53;1.65;;;1.35;;
5807;SDS011;2930;42.678;23.312;2022-09-29T06:49:19;1.58;;;1.48;;
5807;SDS011;2930;42.678;23.312;2022-09-29T06:51:46;1.75;;;1.65;;
5807;SDS011;2930;42.678;23.312;2022-09-29T06:54:12;1.45;;;1.42;;
5807;SDS011;2930;42.678;23.312;2022-09-29T06:56:39;1.60;;;1.60;;
5807;SDS011;2930;42.678;23.312;2022-09-29T06:59:05;1.50;;;1.50;;
5807;SDS011;2930;42.678;23.312;2022-09-29T07:01:31;1.42;;;1.30;;
5807;SDS011;2930;42.678;23.312;2022-09-29T07:03:57;4.22;;;2.00;;
5807;SDS011;2930;42.678;23.312;2022-09-29T07:06:26;4.72;;;1.40;;
5807;SDS011;2930;42.678;23.312;2022-09-29T07:08:54;1.30;;;1.30;;
5807;SDS011;2930;42.678;23.312;2022-09-29T07:11:23;2.78;;;1.80;;
5807;SDS011;2930;42.678;23.312;2022-09-29T07:13:49;3.05;;;1.70;;
5807;SDS011;2930;42.678;23.312;2022-09-29T07:16:15;5.50;;;1.40;;
5807;SDS011;2930;42.678;23.312;2022-09-29T07:18:41;2.65;;;1.33;;
5807;SDS011;2930;42.678;23.312;2022-09-29T07:21:10;1.73;;;1.50;;
5807;SDS011;2930;42.678;23.312;2022-09-29T07:23:40;3.70;;;2.00;;
5807;SDS011;2930;42.678;23.312;2022-09-29T07:26:06;4.45;;;1.90;;
5807;SDS011;2930;42.678;23.312;2022-09-29T07:28:33;2.30;;;2.10;;
5807;SDS011;2930;42.678;23.312;2022-09-29T07:30:59;1.55;;;1.55;;
5807;SDS011;2930;42.678;23.312;2022-09-29T07:33:45;4.40;;;1.83;;
5807;SDS011;2930;42.678;23.312;2022-09-29T07:36:12;3.05;;;2.38;;
5807;SDS011;2930;42.678;23.312;2022-09-29T07:38:39;3.85;;;2.20;;
5807;SDS011;2930;42.678;23.312;2022-09-29T07:41:06;3.75;;;2.25;;
5807;SDS011;2930;42.678;23.312;2022-09-29T07:43:34;2.28;;;2.17;;
5807;SDS011;2930;42.678;23.312;2022-09-29T07:46:00;6.60;;;2.17;;
5807;SDS011;2930;42.678;23.312;2022-09-29T07:48:26;11.15;;;2.20;;
5807;SDS011;2930;42.678;23.312;2022-09-29T07:51:16;3.15;;;1.90;;
5807;SDS011;2930;42.678;23.312;2022-09-29T07:53:41;7.53;;;2.33;;
5807;SDS011;2930;42.678;23.312;2022-09-29T07:56:08;2.25;;;1.83;;
5807;SDS011;2930;42.678;23.312;2022-09-29T07:58:37;2.92;;;2.35;;
5807;SDS011;2930;42.678;23.312;2022-09-29T08:01:04;4.82;;;1.60;;
5807;SDS011;2930;42.678;23.312;2022-09-29T08:03:34;1.52;;;1.52;;
5807;SDS011;2930;42.678;23.312;2022-09-29T08:06:04;3.15;;;2.00;;
5807;SDS011;2930;42.678;23.312;2022-09-29T08:08:31;1.65;;;1.65;;
5807;SDS011;2930;42.678;23.312;2022-09-29T08:11:00;1.20;;;1.05;;
5807;SDS011;2930;42.678;23.312;2022-09-29T08:13:47;1.40;;;1.30;;
5807;SDS011;2930;42.678;23.312;2022-09-29T08:16:14;2.50;;;1.60;;
5807;SDS011;2930;42.678;23.312;2022-09-29T08:18:40;1.67;;;1.23;;
5807;SDS011;2930;42.678;23.312;2022-09-29T08:21:08;1.42;;;1.42;;
5807;SDS011;2930;42.678;23.312;2022-09-29T08:23:36;1.23;;;1.20;;
5807;SDS011;2930;42.678;23.312;2022-09-29T08:26:04;2.33;;;1.60;;
5807;SDS011;2930;42.678;23.312;2022-09-29T08:28:33;2.70;;;1.77;;
5807;SDS011;2930;42.678;23.312;2022-09-29T08:31:03;1.65;;;1.50;;
5807;SDS011;2930;42.678;23.312;2022-09-29T08:33:34;2.78;;;1.25;;
5807;SDS011;2930;42.678;23.312;2022-09-29T08:36:00;1.65;;;1.27;;
5807;SDS011;2930;42.678;23.312;2022-09-29T08:38:29;1.42;;;1.30;;
5807;SDS011;2930;42.678;23.312;2022-09-29T08:40:56;2.25;;;1.40;;
5807;SDS011;2930;42.678;23.312;2022-09-29T08:43:30;0.98;;;0.98;;
5807;SDS011;2930;42.678;23.312;2022-09-29T08:49:16;1.20;;;1.10;;
5807;SDS011;2930;42.678;23.312;2022-09-29T08:51:57;3.63;;;1.27;;
5807;SDS011;2930;42.678;23.312;2022-09-29T08:54:33;2.72;;;1.25;;
5807;SDS011;2930;42.678;23.312;2022-09-29T08:57:05;2.35;;;1.00;;
5807;SDS011;2930;42.678;23.312;2022-09-29T08:59:35;2.20;;;0.93;;
5807;SDS011;2930;42.678;23.312;2022-09-29T09:02:23;2.22;;;1.20;;
5807;SDS011;2930;42.678;23.312;2022-09-29T09:05:11;2.72;;;1.13;;
5807;SDS011;2930;42.678;23.312;2022-09-29T09:10:47;1.20;;;1.20;;
5807;SDS011;2930;42.678;23.312;2022-09-29T09:21:43;2.22;;;1.15;;
5807;SDS011;2930;42.678;23.312;2022-09-29T09:24:21;1.77;;;1.42;;
5807;SDS011;2930;42.678;23.312;2022-09-29T09:26:51;2.17;;;1.13;;
5807;SDS011;2930;42.678;23.312;2022-09-29T09:29:26;2.70;;;1.08;;
5807;SDS011;2930;42.678;23.312;2022-09-29T09:32:15;2.58;;;1.40;;
5807;SDS011;2930;42.678;23.312;2022-09-29T09:45:36;2.15;;;1.13;;
5807;SDS011;2930;42.678;23.312;2022-09-29T09:48:18;1.90;;;1.20;;
5807;SDS011;2930;42.678;23.312;2022-09-29T09:50:44;1.42;;;1.00;;
5807;SDS011;2930;42.678;23.312;2022-09-29T09:53:35;0.77;;;0.77;;
5807;SDS011;2930;42.678;23.312;2022-09-29T09:56:19;0.98;;;0.98;;
5807;SDS011;2930;42.678;23.312;2022-09-29T10:01:22;2.85;;;0.93;;
5807;SDS011;2930;42.678;23.312;2022-09-29T10:03:48;0.75;;;0.68;;
5807;SDS011;2930;42.678;23.312;2022-09-29T10:09:36;0.80;;;0.80;;
5807;SDS011;2930;42.678;23.312;2022-09-29T10:12:01;0.85;;;0.85;;
5807;SDS011;2930;42.678;23.312;2022-09-29T10:14:27;0.75;;;0.75;;
5807;SDS011;2930;42.678;23.312;2022-09-29T10:22:17;1.30;;;1.30;;
5807;SDS011;2930;42.678;23.312;2022-09-29T10:24:43;1.00;;;1.00;;
5807;SDS011;2930;42.678;23.312;2022-09-29T10:27:09;0.68;;;0.65;;
5807;SDS011;2930;42.678;23.312;2022-09-29T10:29:41;0.73;;;0.73;;
5807;SDS011;2930;42.678;23.312;2022-09-29T10:32:14;3.63;;;0.88;;
5807;SDS011;2930;42.678;23.312;2022-09-29T10:34:47;1.55;;;1.05;;
5807;SDS011;2930;42.678;23.312;2022-09-29T10:37:29;3.13;;;0.85;;
5807;SDS011;2930;42.678;23.312;2022-09-29T10:42:38;1.10;;;1.10;;
5807;SDS011;2930;42.678;23.312;2022-09-29T10:48:07;1.38;;;1.23;;
5807;SDS011;2930;42.678;23.312;2022-09-29T10:50:49;1.50;;;1.35;;
5807;SDS011;2930;42.678;23.312;2022-09-29T10:53:22;1.92;;;1.70;;
5807;SDS011;2930;42.678;23.312;2022-09-29T10:55:50;1.50;;;1.50;;
5807;SDS011;2930;42.678;23.312;2022-09-29T10:58:32;0.80;;;0.80;;
5807;SDS011;2930;42.678;23.312;2022-09-29T11:01:11;1.08;;;1.08;;
5807;SDS011;2930;42.678;23.312;2022-09-29T11:03:48;1.95;;;1.20;;
5807;SDS011;2930;42.678;23.312;2022-09-29T11:06:29;1.20;;;1.20;;
5807;SDS011;2930;42.678;23.312;2022-09-29T11:08:59;1.65;;;0.63;;
5807;SDS011;2930;42.678;23.312;2022-09-29T11:14:03;0.73;;;0.73;;
5807;SDS011;2930;42.678;23.312;2022-09-29T11:16:30;0.80;;;0.80;;
5807;SDS011;2930;42.678;23.312;2022-09-29T11:19:20;0.93;;;0.70;;
5807;SDS011;2930;42.678;23.312;2022-09-29T11:29:57;2.22;;;0.70;;
5807;SDS011;2930;42.678;23.312;2022-09-29T11:43:43;0.60;;;0.60;;
5807;SDS011;2930;42.678;23.312;2022-09-29T11:55:01;0.50;;;0.50;;
5807;SDS011;2930;42.678;23.312;2022-09-29T11:58:14;0.50;;;0.50;;
5807;SDS011;2930;42.678;23.312;2022-09-29T12:03:29;0.68;;;0.68;;
5807;SDS011;2930;42.678;23.312;2022-09-29T12:12:08;0.60;;;0.55;;
5807;SDS011;2930;42.678;23.312;2022-09-29T12:14:42;1.65;;;0.60;;
5807;SDS011;2930;42.678;23.312;2022-09-29T12:17:17;0.60;;;0.60;;
5807;SDS011;2930;42.678;23.312;2022-09-29T12:19:47;0.70;;;0.70;;
5807;SDS011;2930;42.678;23.312;2022-09-29T12:22:18;0.60;;;0.60;;
5807;SDS011;2930;42.678;23.312;2022-09-29T12:24:49;0.85;;;0.43;;
5807;SDS011;2930;42.678;23.312;2022-09-29T12:29:56;0.60;;;0.60;;
5807;SDS011;2930;42.678;23.312;2022-09-29T12:40:45;0.50;;;0.50;;
5807;SDS011;2930;42.678;23.312;2022-09-29T13:10:33;1.48;;;0.40;;
5807;SDS011;2930;42.678;23.312;2022-09-29T13:29:31;0.30;;;0.30;;
5807;SDS011;2930;42.678;23.312;2022-09-29T13:32:07;0.40;;;0.40;;
5807;SDS011;2930;42.678;23.312;2022-09-29T13:34:35;0.40;;;0.40;;
5807;SDS011;2930;42.678;23.312;2022-09-29T13:37:06;0.50;;;0.50;;
5807;SDS011;2930;42.678;23.312;2022-09-29T13:39:50;0.50;;;0.50;;
5807;SDS011;2930;42.678;23.312;2022-09-29T13:47:48;0.68;;;0.68;;
5807;SDS011;2930;42.678;23.312;2022-09-29T13:56:16;0.95;;;0.68;;
5807;SDS011;2930;42.678;23.312;2022-09-29T14:01:08;0.50;;;0.50;;
5807;SDS011;2930;42.678;23.312;2022-09-29T14:03:37;3.40;;;0.70;;
5807;SDS011;2930;42.678;23.312;2022-09-29T14:32:51;0.70;;;0.70;;
5807;SDS011;2930;42.678;23.312;2022-09-29T14:35:38;2.95;;;0.93;;
5807;SDS011;2930;42.678;23.312;2022-09-29T14:38:21;0.60;;;0.60;;
5807;SDS011;2930;42.678;23.312;2022-09-29T15:03:50;1.13;;;0.93;;
5807;SDS011;2930;42.678;23.312;2022-09-29T15:06:21;0.73;;;0.73;;
5807;SDS011;2930;42.678;23.312;2022-09-29T15:09:01;4.03;;;0.75;;
5807;SDS011;2930;42.678;23.312;2022-09-29T15:12:11;0.60;;;0.60;;
5807;SDS011;2930;42.678;23.312;2022-09-29T15:14:38;0.68;;;0.68;;
5807;SDS011;2930;42.678;23.312;2022-09-29T15:19:58;0.65;;;0.65;;
5807;SDS011;2930;42.678;23.312;2022-09-29T15:25:33;1.38;;;1.05;;
5807;SDS011;2930;42.678;23.312;2022-09-29T15:30:39;2.28;;;0.60;;
5807;SDS011;2930;42.678;23.312;2022-09-29T15:33:12;0.88;;;0.88;;
5807;SDS011;2930;42.678;23.312;2022-09-29T15:35:41;3.65;;;1.75;;
5807;SDS011;2930;42.678;23.312;2022-09-29T15:40:41;4.57;;;3.60;;
5807;SDS011;2930;42.678;23.312;2022-09-29T15:43:19;1.55;;;1.52;;
5807;SDS011;2930;42.678;23.312;2022-09-29T15:45:54;2.00;;;1.90;;
5807;SDS011;2930;42.678;23.312;2022-09-29T15:48:37;1.83;;;1.38;;
5807;SDS011;2930;42.678;23.312;2022-09-29T15:51:03;2.10;;;1.85;;
5807;SDS011;2930;42.678;23.312;2022-09-29T15:53:29;1.65;;;1.35;;
5807;SDS011;2930;42.678;23.312;2022-09-29T15:55:56;1.00;;;1.00;;
5807;SDS011;2930;42.678;23.312;2022-09-29T16:00:57;1.13;;;1.10;;
5807;SDS011;2930;42.678;23.312;2022-09-29T16:03:28;1.17;;;1.00;;
5807;SDS011;2930;42.678;23.312;2022-09-29T16:06:12;1.70;;;1.60;;
5807;SDS011;2930;42.678;23.312;2022-09-29T16:08:47;1.80;;;1.70;;
5807;SDS011;2930;42.678;23.312;2022-09-29T16:11:23;1.60;;;1.58;;
5807;SDS011;2930;42.678;23.312;2022-09-29T16:13:52;1.45;;;1.38;;
5807;SDS011;2930;42.678;23.312;2022-09-29T16:16:25;1.75;;;1.65;;
5807;SDS011;2930;42.678;23.312;2022-09-29T16:18:54;1.92;;;1.83;;
5807;SDS011;2930;42.678;23.312;2022-09-29T16:21:25;2.08;;;1.70;;
5807;SDS011;2930;42.678;23.312;2022-09-29T16:24:20;3.30;;;2.05;;
5807;SDS011;2930;42.678;23.312;2022-09-29T16:31:44;2.72;;;1.33;;
5807;SDS011;2930;42.678;23.312;2022-09-29T16:36:49;2.45;;;1.30;;
5807;SDS011;2930;42.678;23.312;2022-09-29T16:39:26;1.45;;;1.33;;
5807;SDS011;2930;42.678;23.312;2022-09-29T16:41:57;1.95;;;1.65;;
5807;SDS011;2930;42.678;23.312;2022-09-29T16:44:34;1.20;;;1.13;;
5807;SDS011;2930;42.678;23.312;2022-09-29T16:49:45;2.40;;;1.33;;
5807;SDS011;2930;42.678;23.312;2022-09-29T16:52:25;3.00;;;1.20;;
5807;SDS011;2930;42.678;23.312;2022-09-29T17:00:26;1.20;;;1.20;;
5807;SDS011;2930;42.678;23.312;2022-09-29T17:02:53;2.50;;;1.08;;
5807;SDS011;2930;42.678;23.312;2022-09-29T17:05:21;1.15;;;1.15;;
5807;SDS011;2930;42.678;23.312;2022-09-29T17:07:48;1.17;;;1.17;;
5807;SDS011;2930;42.678;23.312;2022-09-29T17:10:17;2.58;;;1.98;;
5807;SDS011;2930;42.678;23.312;2022-09-29T17:12:45;3.33;;;1.70;;
5807;SDS011;2930;42.678;23.312;2022-09-29T17:15:12;2.05;;;1.00;;
5807;SDS011;2930;42.678;23.312;2022-09-29T17:17:39;1.95;;;1.10;;
5807;SDS011;2930;42.678;23.312;2022-09-29T17:20:09;4.10;;;1.50;;
5807;SDS011;2930;42.678;23.312;2022-09-29T17:22:53;2.05;;;1.40;;
5807;SDS011;2930;42.678;23.312;2022-09-29T17:25:19;1.15;;;1.13;;
5807;SDS011;2930;42.678;23.312;2022-09-29T17:27:45;1.13;;;1.13;;
5807;SDS011;2930;42.678;23.312;2022-09-29T17:30:30;1.13;;;1.05;;
5807;SDS011;2930;42.678;23.312;2022-09-29T17:32:56;1.00;;;1.00;;
5807;SDS011;2930;42.678;23.312;2022-09-29T17:35:27;1.25;;;1.20;;
5807;SDS011;2930;42.678;23.312;2022-09-29T17:37:54;0.98;;;0.73;;
5807;SDS011;2930;42.678;23.312;2022-09-29T17:42:48;0.80;;;0.80;;
5807;SDS011;2930;42.678;23.312;2022-09-29T17:45:14;1.85;;;1.30;;
5807;SDS011;2930;42.678;23.312;2022-09-29T17:47:44;1.00;;;1.00;;
5807;SDS011;2930;42.678;23.312;2022-09-29T17:50:17;1.50;;;0.95;;
5807;SDS011;2930;42.678;23.312;2022-09-29T17:52:49;3.90;;;1.05;;
5807;SDS011;2930;42.678;23.312;2022-09-29T17:55:16;1.55;;;1.45;;
5807;SDS011;2930;42.678;23.312;2022-09-29T17:57:43;1.50;;;1.35;;
5807;SDS011;2930;42.678;23.312;2022-09-29T18:00:15;1.23;;;1.15;;
5807;SDS011;2930;42.678;23.312;2022-09-29T18:02:46;1.38;;;1.23;;
5807;SDS011;2930;42.678;23.312;2022-09-29T18:05:13;1.00;;;1.00;;
5807;SDS011;2930;42.678;23.312;2022-09-29T18:07:39;1.23;;;1.20;;
5807;SDS011;2930;42.678;23.312;2022-09-29T18:10:12;1.40;;;1.23;;
5807;SDS011;2930;42.678;23.312;2022-09-29T18:12:46;1.05;;;1.05;;
5807;SDS011;2930;42.678;23.312;2022-09-29T18:15:12;0.70;;;0.70;;
5807;SDS011;2930;42.678;23.312;2022-09-29T18:17:39;1.40;;;1.30;;
5807;SDS011;2930;42.678;23.312;2022-09-29T18:20:13;1.13;;;1.13;;
5807;SDS011;2930;42.678;23.312;2022-09-29T18:22:44;3.97;;;1.73;;
5807;SDS011;2930;42.678;23.312;2022-09-29T18:25:13;1.77;;;1.65;;
5807;SDS011;2930;42.678;23.312;2022-09-29T18:27:41;2.25;;;1.42;;
5807;SDS011;2930;42.678;23.312;2022-09-29T18:30:18;3.72;;;1.67;;
5807;SDS011;2930;42.678;23.312;2022-09-29T18:32:55;1.95;;;1.77;;
5807;SDS011;2930;42.678;23.312;2022-09-29T18:35:25;2.85;;;1.48;;
5807;SDS011;2930;42.678;23.312;2022-09-29T18:37:52;1.23;;;1.23;;
5807;SDS011;2930;42.678;23.312;2022-09-29T18:40:18;1.13;;;1.13;;
5807;SDS011;2930;42.678;23.312;2022-09-29T18:42:47;2.03;;;1.20;;
5807;SDS011;2930;42.678;23.312;2022-09-29T18:45:19;1.45;;;1.35;;
5807;SDS011;2930;42.678;23.312;2022-09-29T18:47:49;0.90;;;0.90;;
5807;SDS011;2930;42.678;23.312;2022-09-29T18:50:24;1.15;;;1.15;;
5807;SDS011;2930;42.678;23.312;2022-09-29T18:52:52;1.35;;;1.35;;
5807;SDS011;2930;42.678;23.312;2022-09-29T18:55:19;1.80;;;1.30;;
5807;SDS011;2930;42.678;23.312;2022-09-29T18:57:48;1.58;;;1.48;;
5807;SDS011;2930;42.678;23.312;2022-09-29T19:00:14;1.52;;;1.42;;
5807;SDS011;2930;42.678;23.312;2022-09-29T19:02:42;2.28;;;1.75;;
5807;SDS011;2930;42.678;23.312;2022-09-29T19:05:13;1.90;;;1.60;;
5807;SDS011;2930;42.678;23.312;2022-09-29T19:07:46;6.30;;;1.67;;
5807;SDS011;2930;42.678;23.312;2022-09-29T19:10:16;3.10;;;1.58;;
5807;SDS011;2930;42.678;23.312;2022-09-29T19:12:42;3.65;;;2.08;;
5807;SDS011;2930;42.678;23.312;2022-09-29T19:15:19;1.85;;;1.45;;
5807;SDS011;2930;42.678;23.312;2022-09-29T19:17:46;2.67;;;1.80;;
5807;SDS011;2930;42.678;23.312;2022-09-29T19:20:14;1.70;;;1.70;;
5807;SDS011;2930;42.678;23.312;2022-09-29T19:22:41;2.67;;;2.10;;
5807;SDS011;2930;42.678;23.312;2022-09-29T19:25:11;2.50;;;2.35;;
5807;SDS011;2930;42.678;23.312;2022-09-29T19:27:47;1.90;;;1.73;;
5807;SDS011;2930;42.678;23.312;2022-09-29T19:30:15;2.42;;;2.22;;
5807;SDS011;2930;42.678;23.312;2022-09-29T19:32:43;2.05;;;1.95;;
5807;SDS011;2930;42.678;23.312;2022-09-29T19:35:10;2.70;;;1.90;;
5807;SDS011;2930;42.678;23.312;2022-09-29T19:37:38;2.80;;;1.90;;
5807;SDS011;2930;42.678;23.312;2022-09-29T19:40:05;2.35;;;2.25;;
5807;SDS011;2930;42.678;23.312;2022-09-29T19:42:34;3.30;;;1.92;;
5807;SDS011;2930;42.678;23.312;2022-09-29T19:45:01;2.75;;;2.35;;